createdAt,value
2023-05-23T00:03:18.958Z,52.33
2023-05-23T00:08:26.272Z,53.03
2023-05-23T00:13:34.998Z,52.48
2023-05-23T00:18:43.314Z,52.27
2023-05-23T00:23:50.816Z,52.27
2023-05-23T00:28:58.794Z,52.20
2023-05-23T00:34:05.768Z,51.93
2023-05-23T00:39:14.611Z,51.83
2023-05-23T00:44:23.034Z,52.08
2023-05-23T00:49:30.656Z,51.30
2023-05-23T00:54:39.550Z,51.60
2023-05-23T00:59:48.080Z,51.83
2023-05-23T01:04:58.352Z,51.73
2023-05-23T01:10:07.083Z,51.90
2023-05-23T01:15:17.521Z,51.47
2023-05-23T01:20:28.173Z,51.40
2023-05-23T01:25:56.283Z,51.80
2023-05-23T01:31:05.952Z,51.90
2023-05-23T01:36:15.608Z,51.70
2023-05-23T01:41:22.958Z,51.77
2023-05-23T01:46:33.743Z,52.08
2023-05-23T01:51:43.037Z,52.00
2023-05-23T01:56:51.221Z,52.30
2023-05-23T02:01:59.067Z,51.70
2023-05-23T02:07:07.550Z,51.47
2023-05-23T02:12:15.317Z,51.63
2023-05-23T02:17:24.546Z,51.55
2023-05-23T02:22:32.502Z,51.43
2023-05-23T02:27:40.139Z,52.10
2023-05-23T02:32:47.834Z,51.07
2023-05-23T02:37:55.133Z,51.90
2023-05-23T02:48:07.884Z,50.70
2023-05-23T02:53:16.488Z,51.60
2023-05-23T02:58:24.793Z,51.10
2023-05-23T03:03:34.973Z,51.13
2023-05-23T03:08:44.310Z,51.40
2023-05-23T03:13:51.565Z,51.40
2023-05-23T03:24:06.430Z,51.30
2023-05-23T03:29:13.216Z,50.70
2023-05-23T03:34:20.651Z,51.17
2023-05-23T03:39:29.546Z,51.27
2023-05-23T03:44:36.444Z,51.10
2023-05-23T03:49:45.347Z,51.57
2023-05-23T03:54:52.766Z,51.77
2023-05-23T03:59:59.740Z,51.83
2023-05-23T04:05:07.683Z,51.80
2023-05-23T04:10:15.488Z,52.03
2023-05-23T04:15:23.218Z,53.00
2023-05-23T04:25:37.174Z,52.25
2023-05-23T04:30:44.596Z,52.57
2023-05-23T04:35:51.554Z,52.97
2023-05-23T04:40:59.557Z,52.70
2023-05-23T04:46:06.481Z,53.27
2023-05-23T04:51:13.195Z,53.17
2023-05-23T04:56:22.022Z,52.38
2023-05-23T05:01:32.034Z,52.27
2023-05-23T05:06:39.476Z,53.53
2023-05-23T05:11:47.691Z,54.10
2023-05-23T05:16:57.775Z,53.90
2023-05-23T05:22:06.466Z,53.77
2023-05-23T05:27:14.433Z,53.03
2023-05-23T05:32:23.204Z,53.55
2023-05-23T05:37:31.941Z,53.95
2023-05-23T05:42:38.876Z,53.08
2023-05-23T05:47:46.164Z,53.57
2023-05-23T05:52:52.822Z,54.23
2023-05-23T05:57:59.619Z,53.33
2023-05-23T06:03:06.808Z,53.23
2023-05-23T06:08:13.484Z,53.70
2023-05-23T06:13:20.269Z,54.20
2023-05-23T06:18:26.867Z,54.94
2023-05-23T06:23:34.149Z,55.08
2023-05-23T06:28:41.756Z,54.00
2023-05-23T06:33:49.489Z,53.83
2023-05-23T06:38:56.826Z,54.87
2023-05-23T06:44:03.771Z,54.17
2023-05-23T06:49:15.260Z,54.03
2023-05-23T06:54:20.528Z,53.53
2023-05-23T06:59:28.554Z,54.53
2023-05-23T07:04:35.995Z,55.65
2023-05-23T07:09:42.863Z,55.33
2023-05-23T07:14:50.635Z,55.03
2023-05-23T07:19:57.830Z,54.77
2023-05-23T07:25:05.406Z,54.60
2023-05-23T07:30:13.703Z,56.02
2023-05-23T07:35:23.438Z,56.58
2023-05-23T07:40:30.893Z,56.10
2023-05-23T07:45:39.085Z,55.77
2023-05-23T07:50:46.200Z,55.97
2023-05-23T07:55:53.157Z,56.42
2023-05-23T08:00:59.871Z,56.73
2023-05-23T08:06:07.803Z,57.40
2023-05-23T08:11:15.847Z,56.13
2023-05-23T08:16:23.310Z,57.25
2023-05-23T08:21:31.322Z,56.90
2023-05-23T08:26:38.272Z,57.73
2023-05-23T08:31:45.295Z,57.13
2023-05-23T08:36:53.379Z,56.83
2023-05-23T08:42:00.186Z,56.60
2023-05-23T08:47:08.167Z,56.90
2023-05-23T08:52:18.208Z,57.25
2023-05-23T08:57:25.202Z,57.60
2023-05-23T09:02:33.201Z,58.03
2023-05-23T09:07:44.921Z,59.77
2023-05-23T09:12:51.955Z,57.33
2023-05-23T09:18:03.656Z,57.40
2023-05-23T09:23:14.674Z,57.73
2023-05-23T09:28:21.973Z,57.58
2023-05-23T09:33:49.023Z,57.00
2023-05-23T09:38:55.954Z,57.08
2023-05-23T09:44:11.076Z,57.33
2023-05-23T09:49:19.573Z,56.65
2023-05-23T09:54:26.501Z,57.93
2023-05-23T09:59:36.385Z,57.97
2023-05-23T10:04:44.897Z,58.27
2023-05-23T10:09:59.109Z,57.87
2023-05-23T10:15:10.466Z,58.67
2023-05-23T10:20:24.696Z,57.73
2023-05-23T10:25:31.716Z,57.47
2023-05-23T10:30:38.970Z,58.07
2023-05-23T10:36:09.459Z,59.08
2023-05-23T10:41:27.068Z,56.90
2023-05-23T10:46:54.161Z,58.67
2023-05-23T10:52:03.220Z,58.07
2023-05-23T10:57:20.040Z,58.27
2023-05-23T11:02:30.819Z,58.07
2023-05-23T11:07:38.848Z,58.50
2023-05-23T11:12:47.387Z,58.50
2023-05-23T11:17:58.612Z,58.40
2023-05-23T11:23:09.499Z,59.47
2023-05-23T11:28:17.632Z,59.30
2023-05-23T11:33:25.268Z,58.98
2023-05-23T11:38:34.864Z,59.80
2023-05-23T11:43:55.520Z,60.83
2023-05-23T11:49:02.521Z,62.17
2023-05-23T11:54:10.772Z,64.30
2023-05-23T11:59:17.613Z,64.77
2023-05-23T12:04:28.775Z,66.63
2023-05-23T12:09:46.927Z,66.20
2023-05-23T12:14:59.594Z,65.87
2023-05-23T12:20:08.713Z,65.33
2023-05-23T12:25:15.544Z,65.83
2023-05-23T12:30:24.508Z,63.98
2023-05-23T12:35:33.542Z,65.40
2023-05-23T12:40:40.907Z,63.73
2023-05-23T12:45:47.620Z,65.03
2023-05-23T12:50:54.850Z,64.97
2023-05-23T12:56:02.241Z,64.50
2023-05-23T13:01:09.606Z,64.23
2023-05-23T13:06:17.157Z,63.17
2023-05-23T13:11:25.132Z,63.95
2023-05-23T13:16:36.772Z,62.43
2023-05-23T13:21:47.335Z,62.13
2023-05-23T13:26:53.732Z,62.30
2023-05-23T13:32:00.917Z,62.53
2023-05-23T13:37:08.709Z,61.83
2023-05-23T13:42:15.937Z,61.10
2023-05-23T13:47:23.055Z,60.83
2023-05-23T13:52:30.323Z,61.13
2023-05-23T13:57:37.682Z,61.37
2023-05-23T14:02:44.820Z,60.85
2023-05-23T14:07:51.936Z,60.40
2023-05-23T14:12:59.456Z,60.37
2023-05-23T14:18:07.323Z,59.70
2023-05-23T14:23:13.976Z,60.03
2023-05-23T14:28:20.761Z,59.67
2023-05-23T14:33:28.224Z,60.30
2023-05-23T14:38:34.868Z,60.43
2023-05-23T14:43:42.078Z,59.30
2023-05-23T14:48:49.186Z,59.63
2023-05-23T14:53:57.930Z,59.87
2023-05-23T14:59:07.266Z,59.57
2023-05-23T15:04:14.233Z,63.23
2023-05-23T15:09:21.465Z,61.40
2023-05-23T15:14:30.136Z,61.55
2023-05-23T15:19:39.401Z,62.47
2023-05-23T15:24:47.102Z,60.55
2023-05-23T15:29:54.068Z,61.03
2023-05-23T15:35:01.087Z,59.43
2023-05-23T15:40:09.695Z,59.43
2023-05-23T15:45:16.317Z,59.10
2023-05-23T15:50:23.099Z,59.10
2023-05-23T15:55:30.461Z,59.08
2023-05-23T16:00:37.861Z,57.87
2023-05-23T16:05:44.876Z,58.40
2023-05-23T16:10:51.905Z,58.33
2023-05-23T16:15:59.241Z,57.73
2023-05-23T16:21:08.023Z,57.40
2023-05-23T16:26:16.036Z,57.20
2023-05-23T16:31:28.528Z,56.83
2023-05-23T16:36:36.624Z,57.60
2023-05-23T16:41:44.295Z,57.53
2023-05-23T16:46:51.801Z,57.20
2023-05-23T16:51:59.377Z,57.27
2023-05-23T16:57:06.976Z,58.07
2023-05-23T17:02:16.884Z,57.47
2023-05-23T17:07:23.675Z,58.13
2023-05-23T17:12:31.498Z,57.25
2023-05-23T17:17:38.709Z,57.83
2023-05-23T17:22:46.620Z,56.33
2023-05-23T17:27:54.075Z,56.57
2023-05-23T17:33:01.491Z,56.73
2023-05-23T17:38:08.930Z,56.40
2023-05-23T17:43:16.112Z,55.43
2023-05-23T17:48:34.429Z,54.95
2023-05-23T17:53:32.210Z,54.53
2023-05-23T17:58:42.392Z,54.57
2023-05-23T18:03:49.892Z,54.40
2023-05-23T18:08:58.755Z,54.90
2023-05-23T18:14:05.656Z,54.23
2023-05-23T18:19:13.762Z,53.93
2023-05-23T18:24:20.359Z,60.23
2023-05-23T18:29:27.506Z,60.33
2023-05-23T18:34:34.793Z,54.70
2023-05-23T18:39:42.222Z,53.80
2023-05-23T18:44:53.539Z,54.38
2023-05-23T18:50:01.804Z,53.08
2023-05-23T18:55:11.604Z,53.93
2023-05-23T19:00:19.455Z,55.20
2023-05-23T19:05:27.348Z,53.23
2023-05-23T19:10:34.080Z,53.07
2023-05-23T19:15:40.900Z,52.73
2023-05-23T19:20:51.948Z,52.73
2023-05-23T19:26:02.313Z,52.40
2023-05-23T19:31:09.629Z,52.63
2023-05-23T19:36:16.911Z,52.44
2023-05-23T19:41:27.478Z,53.00
2023-05-23T19:46:36.117Z,52.63
2023-05-23T19:51:43.053Z,52.87
2023-05-23T19:56:50.384Z,52.77
2023-05-23T20:01:57.697Z,52.97
2023-05-23T20:07:06.862Z,53.07
2023-05-23T20:12:14.113Z,53.67
2023-05-23T20:17:21.694Z,53.90
2023-05-23T20:22:29.461Z,54.13
2023-05-23T20:27:36.409Z,53.93
2023-05-23T20:32:45.012Z,54.87
2023-05-23T20:37:53.860Z,54.97
2023-05-23T20:43:04.147Z,54.20
2023-05-23T20:48:10.773Z,54.23
2023-05-23T20:53:19.155Z,53.35
2023-05-23T20:58:26.839Z,52.80
2023-05-23T21:03:34.621Z,51.57
2023-05-23T21:08:42.281Z,50.83
2023-05-23T21:13:50.552Z,50.80
2023-05-23T21:18:57.441Z,50.83
2023-05-23T21:24:06.672Z,50.20
2023-05-23T21:29:13.977Z,51.02
2023-05-23T21:34:24.277Z,51.47
2023-05-23T21:39:42.938Z,51.58
2023-05-23T21:44:40.747Z,50.80
2023-05-23T21:49:46.648Z,50.73
2023-05-23T21:54:52.852Z,50.83
2023-05-23T21:59:59.445Z,51.05
2023-05-23T22:05:07.244Z,50.20
2023-05-23T22:10:14.582Z,50.10
2023-05-23T22:15:21.608Z,49.67
2023-05-23T22:20:29.996Z,49.70
2023-05-23T22:25:39.075Z,49.77
2023-05-23T22:30:45.829Z,50.23
2023-05-23T22:35:52.693Z,49.57
2023-05-23T22:40:59.397Z,50.03
2023-05-23T22:46:06.452Z,49.80
2023-05-23T22:51:14.856Z,49.93
2023-05-23T22:56:22.306Z,49.83
2023-05-23T23:01:30.252Z,49.65
2023-05-23T23:06:37.000Z,49.77
2023-05-23T23:11:43.809Z,49.33
2023-05-23T23:16:50.860Z,50.07
2023-05-23T23:21:59.924Z,49.57
2023-05-23T23:27:07.430Z,49.53
2023-05-23T23:32:14.406Z,49.47
2023-05-23T23:37:24.076Z,49.05
2023-05-23T23:42:30.665Z,48.80
2023-05-23T23:47:37.244Z,49.37
2023-05-23T23:52:44.476Z,49.10
2023-05-23T23:57:51.572Z,49.17
